sensor_id;sensor_type;location;lat;lon;timestamp;temperature;humidity
19007;DHT22;9636;47.382;8.480;2023-04-15T00:02:13;14.50;99.90
19007;DHT22;9636;47.382;8.480;2023-04-15T00:04:40;14.50;99.90
19007;DHT22;9636;47.382;8.480;2023-04-15T00:07:07;14.50;99.90
19007;DHT22;9636;47.382;8.480;2023-04-15T00:09:35;14.50;99.90
19007;DHT22;9636;47.382;8.480;2023-04-15T00:12:02;14.40;99.90
19007;DHT22;9636;47.382;8.480;2023-04-15T00:14:29;14.40;99.90
19007;DHT22;9636;47.382;8.480;2023-04-15T00:16:56;14.40;99.90
19007;DHT22;9636;47.382;8.480;2023-04-15T00:19:23;14.30;99.90
19007;DHT22;9636;47.382;8.480;2023-04-15T00:21:50;14.30;99.90
19007;DHT22;9636;47.382;8.480;2023-04-15T00:24:17;14.30;99.90
19007;DHT22;9636;47.382;8.480;2023-04-15T00:26:45;14.20;99.90
19007;DHT22;9636;47.382;8.480;2023-04-15T00:29:12;14.20;99.90
19007;DHT22;9636;47.382;8.480;2023-04-15T00:31:40;14.20;99.90
19007;DHT22;9636;47.382;8.480;2023-04-15T00:34:07;14.20;99.90
19007;DHT22;9636;47.382;8.480;2023-04-15T00:36:34;14.10;99.90
19007;DHT22;9636;47.382;8.480;2023-04-15T00:39:01;14.10;99.90
19007;DHT22;9636;47.382;8.480;2023-04-15T00:41:28;14.10;99.90
19007;DHT22;9636;47.382;8.480;2023-04-15T00:43:56;14.10;99.90
19007;DHT22;9636;47.382;8.480;2023-04-15T00:46:24;14.00;99.90
19007;DHT22;9636;47.382;8.480;2023-04-15T00:48:53;14.00;99.90
19007;DHT22;9636;47.382;8.480;2023-04-15T00:51:20;14.00;99.90
19007;DHT22;9636;47.382;8.480;2023-04-15T00:53:47;13.90;99.90
19007;DHT22;9636;47.382;8.480;2023-04-15T00:56:14;13.90;99.90
19007;DHT22;9636;47.382;8.480;2023-04-15T00:58:41;13.90;99.90
19007;DHT22;9636;47.382;8.480;2023-04-15T01:01:09;13.90;99.90
19007;DHT22;9636;47.382;8.480;2023-04-15T01:03:36;13.90;99.90
19007;DHT22;9636;47.382;8.480;2023-04-15T01:06:03;13.80;99.90
19007;DHT22;9636;47.382;8.480;2023-04-15T01:08:30;13.80;99.90
19007;DHT22;9636;47.382;8.480;2023-04-15T01:10:57;13.80;99.90
19007;DHT22;9636;47.382;8.480;2023-04-15T01:13:26;13.80;99.90
19007;DHT22;9636;47.382;8.480;2023-04-15T01:15:52;13.80;99.90
19007;DHT22;9636;47.382;8.480;2023-04-15T01:18:21;13.70;99.90
19007;DHT22;9636;47.382;8.480;2023-04-15T01:20:48;13.70;99.90
19007;DHT22;9636;47.382;8.480;2023-04-15T01:23:15;13.70;99.90
19007;DHT22;9636;47.382;8.480;2023-04-15T01:25:44;13.70;99.90
19007;DHT22;9636;47.382;8.480;2023-04-15T01:28:12;13.70;99.90
19007;DHT22;9636;47.382;8.480;2023-04-15T01:30:38;13.70;99.90
19007;DHT22;9636;47.382;8.480;2023-04-15T01:33:05;13.70;99.90
19007;DHT22;9636;47.382;8.480;2023-04-15T01:35:32;13.60;99.90
19007;DHT22;9636;47.382;8.480;2023-04-15T01:38:03;13.60;99.90
19007;DHT22;9636;47.382;8.480;2023-04-15T01:40:30;13.60;99.90
19007;DHT22;9636;47.382;8.480;2023-04-15T01:42:59;13.60;99.90
19007;DHT22;9636;47.382;8.480;2023-04-15T01:45:26;13.60;99.90
19007;DHT22;9636;47.382;8.480;2023-04-15T01:47:53;13.60;99.90
19007;DHT22;9636;47.382;8.480;2023-04-15T01:50:20;13.50;99.90
19007;DHT22;9636;47.382;8.480;2023-04-15T01:52:47;13.60;99.90
19007;DHT22;9636;47.382;8.480;2023-04-15T01:55:14;13.50;99.90
19007;DHT22;9636;47.382;8.480;2023-04-15T01:57:41;13.50;99.90
19007;DHT22;9636;47.382;8.480;2023-04-15T02:00:10;13.50;99.90
19007;DHT22;9636;47.382;8.480;2023-04-15T02:02:37;13.50;99.90
19007;DHT22;9636;47.382;8.480;2023-04-15T02:05:04;13.50;99.90
19007;DHT22;9636;47.382;8.480;2023-04-15T02:07:31;13.50;99.90
19007;DHT22;9636;47.382;8.480;2023-04-15T02:09:58;13.50;99.90
19007;DHT22;9636;47.382;8.480;2023-04-15T02:12:25;13.50;99.90
19007;DHT22;9636;47.382;8.480;2023-04-15T02:14:52;13.40;99.90
19007;DHT22;9636;47.382;8.480;2023-04-15T02:17:21;13.40;99.90
19007;DHT22;9636;47.382;8.480;2023-04-15T02:19:48;13.40;99.90
19007;DHT22;9636;47.382;8.480;2023-04-15T02:22:15;13.50;99.90
19007;DHT22;9636;47.382;8.480;2023-04-15T02:24:43;13.40;99.90
19007;DHT22;9636;47.382;8.480;2023-04-15T02:27:10;13.40;99.90
19007;DHT22;9636;47.382;8.480;2023-04-15T02:29:37;13.40;99.90
19007;DHT22;9636;47.382;8.480;2023-04-15T02:32:04;13.40;99.90
19007;DHT22;9636;47.382;8.480;2023-04-15T02:34:33;13.40;99.90
19007;DHT22;9636;47.382;8.480;2023-04-15T02:37:00;13.40;99.90
19007;DHT22;9636;47.382;8.480;2023-04-15T02:39:28;13.40;99.90
19007;DHT22;9636;47.382;8.480;2023-04-15T02:41:55;13.40;99.90
19007;DHT22;9636;47.382;8.480;2023-04-15T02:44:23;13.30;99.90
19007;DHT22;9636;47.382;8.480;2023-04-15T02:46:50;13.40;99.90
19007;DHT22;9636;47.382;8.480;2023-04-15T02:49:19;13.30;99.90
19007;DHT22;9636;47.382;8.480;2023-04-15T02:51:47;13.30;99.90
19007;DHT22;9636;47.382;8.480;2023-04-15T02:54:14;13.30;99.90
19007;DHT22;9636;47.382;8.480;2023-04-15T02:56:41;13.30;99.90
19007;DHT22;9636;47.382;8.480;2023-04-15T02:59:08;13.30;99.90
19007;DHT22;9636;47.382;8.480;2023-04-15T03:01:34;13.30;99.90
19007;DHT22;9636;47.382;8.480;2023-04-15T03:04:01;13.30;99.90
19007;DHT22;9636;47.382;8.480;2023-04-15T03:06:28;13.30;99.90
19007;DHT22;9636;47.382;8.480;2023-04-15T03:08:56;13.30;99.90
19007;DHT22;9636;47.382;8.480;2023-04-15T03:11:24;13.30;99.90
19007;DHT22;9636;47.382;8.480;2023-04-15T03:13:52;13.20;99.90
19007;DHT22;9636;47.382;8.480;2023-04-15T03:16:18;13.20;99.90
19007;DHT22;9636;47.382;8.480;2023-04-15T03:18:45;13.20;99.90
19007;DHT22;9636;47.382;8.480;2023-04-15T03:21:12;13.20;99.90
19007;DHT22;9636;47.382;8.480;2023-04-15T03:23:39;13.20;99.90
19007;DHT22;9636;47.382;8.480;2023-04-15T03:26:07;13.20;99.90
19007;DHT22;9636;47.382;8.480;2023-04-15T03:28:33;13.20;99.90
19007;DHT22;9636;47.382;8.480;2023-04-15T03:31:01;13.20;99.90
19007;DHT22;9636;47.382;8.480;2023-04-15T03:33:27;13.20;99.90
19007;DHT22;9636;47.382;8.480;2023-04-15T03:35:54;13.20;99.90
19007;DHT22;9636;47.382;8.480;2023-04-15T03:38:21;13.20;99.90
19007;DHT22;9636;47.382;8.480;2023-04-15T03:40:48;13.20;99.90
19007;DHT22;9636;47.382;8.480;2023-04-15T03:43:16;13.20;99.90
19007;DHT22;9636;47.382;8.480;2023-04-15T03:45:43;13.10;99.90
19007;DHT22;9636;47.382;8.480;2023-04-15T03:48:10;13.10;99.90
19007;DHT22;9636;47.382;8.480;2023-04-15T03:50:36;13.10;99.90
19007;DHT22;9636;47.382;8.480;2023-04-15T03:53:03;13.10;99.90
19007;DHT22;9636;47.382;8.480;2023-04-15T03:55:30;13.10;99.90
19007;DHT22;9636;47.382;8.480;2023-04-15T03:57:57;13.10;99.90
19007;DHT22;9636;47.382;8.480;2023-04-15T04:00:25;13.10;99.90
19007;DHT22;9636;47.382;8.480;2023-04-15T04:02:52;13.10;99.90
19007;DHT22;9636;47.382;8.480;2023-04-15T04:05:18;13.10;99.90
19007;DHT22;9636;47.382;8.480;2023-04-15T04:07:45;13.10;99.90
19007;DHT22;9636;47.382;8.480;2023-04-15T04:10:12;13.00;99.90
19007;DHT22;9636;47.382;8.480;2023-04-15T04:12:39;13.00;99.90
19007;DHT22;9636;47.382;8.480;2023-04-15T04:15:07;13.00;99.90
19007;DHT22;9636;47.382;8.480;2023-04-15T04:17:35;13.00;99.90
19007;DHT22;9636;47.382;8.480;2023-04-15T04:20:02;13.00;99.90
19007;DHT22;9636;47.382;8.480;2023-04-15T04:22:30;13.00;99.90
19007;DHT22;9636;47.382;8.480;2023-04-15T04:24:57;13.00;99.90
19007;DHT22;9636;47.382;8.480;2023-04-15T04:27:25;13.00;99.90
19007;DHT22;9636;47.382;8.480;2023-04-15T04:29:51;13.00;99.90
19007;DHT22;9636;47.382;8.480;2023-04-15T04:32:18;13.00;99.90
19007;DHT22;9636;47.382;8.480;2023-04-15T04:34:46;13.00;99.90
19007;DHT22;9636;47.382;8.480;2023-04-15T04:37:13;13.00;99.90
19007;DHT22;9636;47.382;8.480;2023-04-15T04:39:40;13.00;99.90
19007;DHT22;9636;47.382;8.480;2023-04-15T04:42:07;12.90;99.90
19007;DHT22;9636;47.382;8.480;2023-04-15T04:44:34;13.00;99.90
19007;DHT22;9636;47.382;8.480;2023-04-15T04:47:00;12.90;99.90
19007;DHT22;9636;47.382;8.480;2023-04-15T04:49:27;12.90;99.90
19007;DHT22;9636;47.382;8.480;2023-04-15T04:51:56;12.90;99.90
19007;DHT22;9636;47.382;8.480;2023-04-15T04:54:23;12.90;99.90
19007;DHT22;9636;47.382;8.480;2023-04-15T04:56:50;12.90;99.90
19007;DHT22;9636;47.382;8.480;2023-04-15T04:59:17;12.90;99.90
19007;DHT22;9636;47.382;8.480;2023-04-15T05:01:44;12.90;99.90
19007;DHT22;9636;47.382;8.480;2023-04-15T05:04:11;12.90;99.90
19007;DHT22;9636;47.382;8.480;2023-04-15T05:06:37;12.90;99.90
19007;DHT22;9636;47.382;8.480;2023-04-15T05:09:06;12.90;99.90
19007;DHT22;9636;47.382;8.480;2023-04-15T05:11:32;12.90;99.90
19007;DHT22;9636;47.382;8.480;2023-04-15T05:13:59;12.90;99.90
19007;DHT22;9636;47.382;8.480;2023-04-15T05:16:26;12.90;99.90
19007;DHT22;9636;47.382;8.480;2023-04-15T05:18:53;12.90;99.90
19007;DHT22;9636;47.382;8.480;2023-04-15T05:21:20;12.90;99.90
19007;DHT22;9636;47.382;8.480;2023-04-15T05:23:47;12.90;99.90
19007;DHT22;9636;47.382;8.480;2023-04-15T05:26:15;12.90;99.90
19007;DHT22;9636;47.382;8.480;2023-04-15T05:28:43;12.90;99.90
19007;DHT22;9636;47.382;8.480;2023-04-15T05:31:10;12.90;99.90
19007;DHT22;9636;47.382;8.480;2023-04-15T05:33:37;13.00;99.90
19007;DHT22;9636;47.382;8.480;2023-04-15T05:36:05;12.90;99.90
19007;DHT22;9636;47.382;8.480;2023-04-15T05:38:32;12.90;99.90
19007;DHT22;9636;47.382;8.480;2023-04-15T05:40:59;12.90;99.90
19007;DHT22;9636;47.382;8.480;2023-04-15T05:43:27;13.00;99.90
19007;DHT22;9636;47.382;8.480;2023-04-15T05:45:55;12.90;99.90
19007;DHT22;9636;47.382;8.480;2023-04-15T05:48:22;13.00;99.90
19007;DHT22;9636;47.382;8.480;2023-04-15T05:50:48;13.00;99.90
19007;DHT22;9636;47.382;8.480;2023-04-15T05:53:15;13.00;99.90
19007;DHT22;9636;47.382;8.480;2023-04-15T05:55:42;13.00;99.90
19007;DHT22;9636;47.382;8.480;2023-04-15T05:58:09;13.10;99.90
19007;DHT22;9636;47.382;8.480;2023-04-15T06:00:37;13.10;99.90
19007;DHT22;9636;47.382;8.480;2023-04-15T06:03:04;13.20;99.90
19007;DHT22;9636;47.382;8.480;2023-04-15T06:05:32;13.20;99.90
19007;DHT22;9636;47.382;8.480;2023-04-15T06:07:59;13.30;99.90
19007;DHT22;9636;47.382;8.480;2023-04-15T06:10:26;13.30;99.90
19007;DHT22;9636;47.382;8.480;2023-04-15T06:12:52;13.30;99.90
19007;DHT22;9636;47.382;8.480;2023-04-15T06:15:19;13.40;99.90
19007;DHT22;9636;47.382;8.480;2023-04-15T06:17:48;13.40;99.90
19007;DHT22;9636;47.382;8.480;2023-04-15T06:20:14;13.50;99.90
19007;DHT22;9636;47.382;8.480;2023-04-15T06:22:41;13.50;99.90
19007;DHT22;9636;47.382;8.480;2023-04-15T06:25:08;13.60;99.90
19007;DHT22;9636;47.382;8.480;2023-04-15T06:27:36;13.60;99.90
19007;DHT22;9636;47.382;8.480;2023-04-15T06:30:03;13.70;99.90
19007;DHT22;9636;47.382;8.480;2023-04-15T06:32:31;13.70;99.90
19007;DHT22;9636;47.382;8.480;2023-04-15T06:34:59;13.80;99.90
19007;DHT22;9636;47.382;8.480;2023-04-15T06:37:27;13.80;99.90
19007;DHT22;9636;47.382;8.480;2023-04-15T06:39:53;13.90;99.90
19007;DHT22;9636;47.382;8.480;2023-04-15T06:42:20;13.90;99.90
19007;DHT22;9636;47.382;8.480;2023-04-15T06:44:48;14.00;99.90
19007;DHT22;9636;47.382;8.480;2023-04-15T06:47:15;14.10;99.90
19007;DHT22;9636;47.382;8.480;2023-04-15T06:49:42;14.10;99.90
19007;DHT22;9636;47.382;8.480;2023-04-15T06:52:10;14.20;99.90
19007;DHT22;9636;47.382;8.480;2023-04-15T06:54:38;14.20;99.90
19007;DHT22;9636;47.382;8.480;2023-04-15T06:57:04;14.30;99.90
19007;DHT22;9636;47.382;8.480;2023-04-15T06:59:31;14.30;99.90
19007;DHT22;9636;47.382;8.480;2023-04-15T07:01:58;14.30;99.90
19007;DHT22;9636;47.382;8.480;2023-04-15T07:04:25;14.40;99.90
19007;DHT22;9636;47.382;8.480;2023-04-15T07:06:52;14.50;99.90
19007;DHT22;9636;47.382;8.480;2023-04-15T07:09:21;14.50;99.90
19007;DHT22;9636;47.382;8.480;2023-04-15T07:11:49;14.60;99.90
19007;DHT22;9636;47.382;8.480;2023-04-15T07:14:16;14.60;99.90
19007;DHT22;9636;47.382;8.480;2023-04-15T07:16:43;14.60;99.90
19007;DHT22;9636;47.382;8.480;2023-04-15T07:19:09;14.70;99.90
19007;DHT22;9636;47.382;8.480;2023-04-15T07:21:36;14.80;99.90
19007;DHT22;9636;47.382;8.480;2023-04-15T07:24:03;14.90;99.90
19007;DHT22;9636;47.382;8.480;2023-04-15T07:26:32;14.90;99.90
19007;DHT22;9636;47.382;8.480;2023-04-15T07:28:59;15.00;99.90
19007;DHT22;9636;47.382;8.480;2023-04-15T07:31:26;15.10;99.90
19007;DHT22;9636;47.382;8.480;2023-04-15T07:33:53;15.20;99.90
19007;DHT22;9636;47.382;8.480;2023-04-15T07:36:19;15.20;99.90
19007;DHT22;9636;47.382;8.480;2023-04-15T07:38:46;15.30;99.90
19007;DHT22;9636;47.382;8.480;2023-04-15T07:41:13;15.30;99.90
19007;DHT22;9636;47.382;8.480;2023-04-15T07:43:41;15.40;99.90
19007;DHT22;9636;47.382;8.480;2023-04-15T07:46:09;15.40;99.90
19007;DHT22;9636;47.382;8.480;2023-04-15T07:48:36;15.50;99.90
19007;DHT22;9636;47.382;8.480;2023-04-15T07:51:03;15.50;99.90
19007;DHT22;9636;47.382;8.480;2023-04-15T07:53:29;15.60;99.90
19007;DHT22;9636;47.382;8.480;2023-04-15T07:55:57;15.60;99.90
19007;DHT22;9636;47.382;8.480;2023-04-15T07:58:24;15.70;99.90
19007;DHT22;9636;47.382;8.480;2023-04-15T08:00:53;15.80;99.90
19007;DHT22;9636;47.382;8.480;2023-04-15T08:03:20;15.90;99.90
19007;DHT22;9636;47.382;8.480;2023-04-15T08:05:48;15.90;99.90
19007;DHT22;9636;47.382;8.480;2023-04-15T08:08:14;16.00;99.90
19007;DHT22;9636;47.382;8.480;2023-04-15T08:10:41;16.00;99.90
19007;DHT22;9636;47.382;8.480;2023-04-15T08:13:08;16.20;99.90
19007;DHT22;9636;47.382;8.480;2023-04-15T08:15:35;16.30;99.90
19007;DHT22;9636;47.382;8.480;2023-04-15T08:18:03;16.50;99.90
19007;DHT22;9636;47.382;8.480;2023-04-15T08:20:30;16.50;99.90
19007;DHT22;9636;47.382;8.480;2023-04-15T08:22:57;16.60;99.90
19007;DHT22;9636;47.382;8.480;2023-04-15T08:25:24;16.70;99.90
19007;DHT22;9636;47.382;8.480;2023-04-15T08:27:53;16.70;99.90
19007;DHT22;9636;47.382;8.480;2023-04-15T08:30:20;16.80;99.90
19007;DHT22;9636;47.382;8.480;2023-04-15T08:32:49;16.80;99.90
19007;DHT22;9636;47.382;8.480;2023-04-15T08:35:17;16.90;99.90
19007;DHT22;9636;47.382;8.480;2023-04-15T08:37:44;16.90;99.90
19007;DHT22;9636;47.382;8.480;2023-04-15T08:40:11;16.90;99.90
19007;DHT22;9636;47.382;8.480;2023-04-15T08:42:41;17.00;99.90
19007;DHT22;9636;47.382;8.480;2023-04-15T08:45:09;17.00;99.90
19007;DHT22;9636;47.382;8.480;2023-04-15T08:47:37;17.00;99.90
19007;DHT22;9636;47.382;8.480;2023-04-15T08:50:05;17.00;99.90
19007;DHT22;9636;47.382;8.480;2023-04-15T08:52:35;17.00;99.90
19007;DHT22;9636;47.382;8.480;2023-04-15T08:55:02;17.10;99.90
19007;DHT22;9636;47.382;8.480;2023-04-15T08:57:30;17.10;99.90
19007;DHT22;9636;47.382;8.480;2023-04-15T08:59:57;17.20;99.90
19007;DHT22;9636;47.382;8.480;2023-04-15T09:02:25;17.30;99.90
19007;DHT22;9636;47.382;8.480;2023-04-15T09:04:53;17.30;99.90
19007;DHT22;9636;47.382;8.480;2023-04-15T09:07:19;17.30;99.90
19007;DHT22;9636;47.382;8.480;2023-04-15T09:09:48;17.30;99.90
19007;DHT22;9636;47.382;8.480;2023-04-15T09:12:16;17.40;99.90
19007;DHT22;9636;47.382;8.480;2023-04-15T09:14:44;17.40;99.90
19007;DHT22;9636;47.382;8.480;2023-04-15T09:17:11;17.40;99.90
19007;DHT22;9636;47.382;8.480;2023-04-15T09:19:38;17.50;99.90
19007;DHT22;9636;47.382;8.480;2023-04-15T09:22:05;17.50;99.90
19007;DHT22;9636;47.382;8.480;2023-04-15T09:24:37;17.60;99.90
19007;DHT22;9636;47.382;8.480;2023-04-15T09:27:06;17.60;99.90
19007;DHT22;9636;47.382;8.480;2023-04-15T09:29:33;17.70;99.90
19007;DHT22;9636;47.382;8.480;2023-04-15T09:32:11;17.70;99.90
19007;DHT22;9636;47.382;8.480;2023-04-15T09:34:38;17.80;99.90
19007;DHT22;9636;47.382;8.480;2023-04-15T09:37:05;17.80;99.90
19007;DHT22;9636;47.382;8.480;2023-04-15T09:39:45;17.90;99.90
19007;DHT22;9636;47.382;8.480;2023-04-15T09:42:14;18.00;99.90
19007;DHT22;9636;47.382;8.480;2023-04-15T09:44:42;18.00;99.90
19007;DHT22;9636;47.382;8.480;2023-04-15T09:47:08;18.10;99.90
19007;DHT22;9636;47.382;8.480;2023-04-15T09:49:35;18.10;99.90
19007;DHT22;9636;47.382;8.480;2023-04-15T09:52:02;18.10;99.90
19007;DHT22;9636;47.382;8.480;2023-04-15T09:54:33;18.10;99.90
19007;DHT22;9636;47.382;8.480;2023-04-15T09:57:04;18.20;99.90
19007;DHT22;9636;47.382;8.480;2023-04-15T09:59:33;18.20;99.90
19007;DHT22;9636;47.382;8.480;2023-04-15T10:02:02;18.20;99.90
19007;DHT22;9636;47.382;8.480;2023-04-15T10:04:30;18.20;99.90
19007;DHT22;9636;47.382;8.480;2023-04-15T10:06:58;18.20;99.90
19007;DHT22;9636;47.382;8.480;2023-04-15T10:09:27;18.20;99.90
19007;DHT22;9636;47.382;8.480;2023-04-15T10:11:54;18.20;99.90
19007;DHT22;9636;47.382;8.480;2023-04-15T10:14:22;18.20;99.90
19007;DHT22;9636;47.382;8.480;2023-04-15T10:16:55;18.30;99.90
19007;DHT22;9636;47.382;8.480;2023-04-15T10:19:24;18.20;99.90
19007;DHT22;9636;47.382;8.480;2023-04-15T10:21:53;18.30;99.90
19007;DHT22;9636;47.382;8.480;2023-04-15T10:24:22;18.30;99.90
19007;DHT22;9636;47.382;8.480;2023-04-15T10:26:50;18.40;99.90
19007;DHT22;9636;47.382;8.480;2023-04-15T10:29:17;18.40;99.90
19007;DHT22;9636;47.382;8.480;2023-04-15T10:31:45;18.40;99.90
19007;DHT22;9636;47.382;8.480;2023-04-15T10:34:15;18.50;99.90
19007;DHT22;9636;47.382;8.480;2023-04-15T10:36:42;18.50;99.90
19007;DHT22;9636;47.382;8.480;2023-04-15T10:39:39;18.60;99.90
19007;DHT22;9636;47.382;8.480;2023-04-15T10:42:07;18.60;99.90
19007;DHT22;9636;47.382;8.480;2023-04-15T10:44:35;18.80;99.90
19007;DHT22;9636;47.382;8.480;2023-04-15T10:47:09;18.90;99.90
19007;DHT22;9636;47.382;8.480;2023-04-15T10:49:44;19.00;99.90
19007;DHT22;9636;47.382;8.480;2023-04-15T10:52:11;19.20;99.90
19007;DHT22;9636;47.382;8.480;2023-04-15T10:54:40;19.30;99.90
19007;DHT22;9636;47.382;8.480;2023-04-15T10:57:08;19.40;99.90
19007;DHT22;9636;47.382;8.480;2023-04-15T10:59:59;19.40;99.90
19007;DHT22;9636;47.382;8.480;2023-04-15T11:02:38;19.40;99.90
19007;DHT22;9636;47.382;8.480;2023-04-15T11:05:08;19.40;99.90
19007;DHT22;9636;47.382;8.480;2023-04-15T11:07:36;19.40;99.90
19007;DHT22;9636;47.382;8.480;2023-04-15T11:10:03;19.40;99.90
19007;DHT22;9636;47.382;8.480;2023-04-15T11:12:51;19.40;99.90
19007;DHT22;9636;47.382;8.480;2023-04-15T11:15:27;19.40;99.90
19007;DHT22;9636;47.382;8.480;2023-04-15T11:17:54;19.40;99.90
19007;DHT22;9636;47.382;8.480;2023-04-15T11:20:22;19.50;99.90
19007;DHT22;9636;47.382;8.480;2023-04-15T11:22:50;19.50;99.90
19007;DHT22;9636;47.382;8.480;2023-04-15T11:25:22;19.60;99.90
19007;DHT22;9636;47.382;8.480;2023-04-15T11:27:49;19.60;99.90
19007;DHT22;9636;47.382;8.480;2023-04-15T11:30:18;19.70;99.90
19007;DHT22;9636;47.382;8.480;2023-04-15T11:32:46;19.70;99.90
19007;DHT22;9636;47.382;8.480;2023-04-15T11:35:13;19.70;99.90
19007;DHT22;9636;47.382;8.480;2023-04-15T11:37:41;19.70;99.90
19007;DHT22;9636;47.382;8.480;2023-04-15T11:40:09;19.80;99.90
19007;DHT22;9636;47.382;8.480;2023-04-15T11:42:36;19.80;99.90
19007;DHT22;9636;47.382;8.480;2023-04-15T11:45:06;19.80;99.90
19007;DHT22;9636;47.382;8.480;2023-04-15T11:47:34;19.90;99.90
19007;DHT22;9636;47.382;8.480;2023-04-15T11:50:13;19.90;99.90
19007;DHT22;9636;47.382;8.480;2023-04-15T11:52:51;20.00;99.90
19007;DHT22;9636;47.382;8.480;2023-04-15T11:55:18;20.00;99.90
19007;DHT22;9636;47.382;8.480;2023-04-15T11:57:45;20.00;99.90
19007;DHT22;9636;47.382;8.480;2023-04-15T12:00:12;20.00;99.90
19007;DHT22;9636;47.382;8.480;2023-04-15T12:02:42;20.10;99.90
19007;DHT22;9636;47.382;8.480;2023-04-15T12:05:09;20.10;99.90
19007;DHT22;9636;47.382;8.480;2023-04-15T12:07:58;20.20;99.90
19007;DHT22;9636;47.382;8.480;2023-04-15T12:10:26;20.20;99.90
19007;DHT22;9636;47.382;8.480;2023-04-15T12:12:52;20.30;99.90
19007;DHT22;9636;47.382;8.480;2023-04-15T12:15:21;20.30;99.90
19007;DHT22;9636;47.382;8.480;2023-04-15T12:17:48;20.40;99.90
19007;DHT22;9636;47.382;8.480;2023-04-15T12:20:20;20.50;99.90
19007;DHT22;9636;47.382;8.480;2023-04-15T12:22:47;20.50;99.90
19007;DHT22;9636;47.382;8.480;2023-04-15T12:25:16;20.60;99.90
19007;DHT22;9636;47.382;8.480;2023-04-15T12:27:50;20.70;99.90
19007;DHT22;9636;47.382;8.480;2023-04-15T12:30:17;20.80;99.90
19007;DHT22;9636;47.382;8.480;2023-04-15T12:32:45;20.80;99.90
19007;DHT22;9636;47.382;8.480;2023-04-15T12:35:12;20.90;99.90
19007;DHT22;9636;47.382;8.480;2023-04-15T12:37:39;20.90;99.90
19007;DHT22;9636;47.382;8.480;2023-04-15T12:40:07;21.00;99.90
19007;DHT22;9636;47.382;8.480;2023-04-15T12:42:36;21.00;99.90
19007;DHT22;9636;47.382;8.480;2023-04-15T12:45:04;21.10;99.90
19007;DHT22;9636;47.382;8.480;2023-04-15T12:47:31;21.10;99.90
19007;DHT22;9636;47.382;8.480;2023-04-15T12:49:58;21.20;99.90
19007;DHT22;9636;47.382;8.480;2023-04-15T12:52:24;21.20;99.90
19007;DHT22;9636;47.382;8.480;2023-04-15T12:54:52;21.30;99.90
19007;DHT22;9636;47.382;8.480;2023-04-15T12:57:19;21.30;99.90
19007;DHT22;9636;47.382;8.480;2023-04-15T12:59:47;21.30;99.90
19007;DHT22;9636;47.382;8.480;2023-04-15T13:02:14;21.30;99.90
19007;DHT22;9636;47.382;8.480;2023-04-15T13:04:41;21.30;99.90
19007;DHT22;9636;47.382;8.480;2023-04-15T13:07:07;21.40;99.90
19007;DHT22;9636;47.382;8.480;2023-04-15T13:09:34;21.30;99.90
19007;DHT22;9636;47.382;8.480;2023-04-15T13:12:02;21.40;99.90
19007;DHT22;9636;47.382;8.480;2023-04-15T13:14:29;21.30;99.90
19007;DHT22;9636;47.382;8.480;2023-04-15T13:16:58;21.40;99.90
19007;DHT22;9636;47.382;8.480;2023-04-15T13:19:25;21.40;99.90
19007;DHT22;9636;47.382;8.480;2023-04-15T13:21:51;21.40;99.90
19007;DHT22;9636;47.382;8.480;2023-04-15T13:24:18;21.40;99.90
19007;DHT22;9636;47.382;8.480;2023-04-15T13:26:45;21.40;99.90
19007;DHT22;9636;47.382;8.480;2023-04-15T13:29:12;21.40;99.90
19007;DHT22;9636;47.382;8.480;2023-04-15T13:31:39;21.40;99.90
19007;DHT22;9636;47.382;8.480;2023-04-15T13:34:07;21.40;99.90
19007;DHT22;9636;47.382;8.480;2023-04-15T13:36:34;21.40;99.90
19007;DHT22;9636;47.382;8.480;2023-04-15T13:39:00;21.40;99.90
19007;DHT22;9636;47.382;8.480;2023-04-15T13:41:27;21.40;99.90
19007;DHT22;9636;47.382;8.480;2023-04-15T13:43:54;21.40;99.90
19007;DHT22;9636;47.382;8.480;2023-04-15T13:46:22;21.40;99.90
19007;DHT22;9636;47.382;8.480;2023-04-15T13:48:50;21.40;99.90
19007;DHT22;9636;47.382;8.480;2023-04-15T13:51:18;21.40;99.90
19007;DHT22;9636;47.382;8.480;2023-04-15T13:53:45;21.40;99.90
19007;DHT22;9636;47.382;8.480;2023-04-15T13:56:12;21.50;99.90
19007;DHT22;9636;47.382;8.480;2023-04-15T13:58:39;21.50;99.90
19007;DHT22;9636;47.382;8.480;2023-04-15T14:01:06;21.50;99.90
19007;DHT22;9636;47.382;8.480;2023-04-15T14:03:34;21.50;99.90
19007;DHT22;9636;47.382;8.480;2023-04-15T14:06:01;21.50;99.90
19007;DHT22;9636;47.382;8.480;2023-04-15T14:08:29;21.50;99.90
19007;DHT22;9636;47.382;8.480;2023-04-15T14:10:56;21.50;99.90
19007;DHT22;9636;47.382;8.480;2023-04-15T14:13:23;21.50;99.90
19007;DHT22;9636;47.382;8.480;2023-04-15T14:15:50;21.50;99.90
19007;DHT22;9636;47.382;8.480;2023-04-15T14:18:16;21.50;99.90
19007;DHT22;9636;47.382;8.480;2023-04-15T14:20:43;21.40;99.90
19007;DHT22;9636;47.382;8.480;2023-04-15T14:23:10;21.40;99.90
19007;DHT22;9636;47.382;8.480;2023-04-15T14:25:38;21.40;99.90
19007;DHT22;9636;47.382;8.480;2023-04-15T14:28:05;21.40;99.90
19007;DHT22;9636;47.382;8.480;2023-04-15T14:30:32;21.30;99.90
19007;DHT22;9636;47.382;8.480;2023-04-15T14:32:59;21.30;99.90
19007;DHT22;9636;47.382;8.480;2023-04-15T14:35:26;21.20;99.90
19007;DHT22;9636;47.382;8.480;2023-04-15T14:37:53;21.20;99.90
19007;DHT22;9636;47.382;8.480;2023-04-15T14:40:20;21.10;99.90
19007;DHT22;9636;47.382;8.480;2023-04-15T14:42:48;21.10;99.90
19007;DHT22;9636;47.382;8.480;2023-04-15T14:45:15;21.00;99.90
19007;DHT22;9636;47.382;8.480;2023-04-15T14:47:42;20.90;99.90
19007;DHT22;9636;47.382;8.480;2023-04-15T14:50:09;20.80;99.90
19007;DHT22;9636;47.382;8.480;2023-04-15T14:52:36;20.90;99.90
19007;DHT22;9636;47.382;8.480;2023-04-15T14:55:04;20.80;99.90
19007;DHT22;9636;47.382;8.480;2023-04-15T14:57:31;20.80;99.90
19007;DHT22;9636;47.382;8.480;2023-04-15T15:00:00;20.80;99.90
19007;DHT22;9636;47.382;8.480;2023-04-15T15:02:27;20.70;99.90
19007;DHT22;9636;47.382;8.480;2023-04-15T15:04:54;20.60;99.90
19007;DHT22;9636;47.382;8.480;2023-04-15T15:07:21;20.60;99.90
19007;DHT22;9636;47.382;8.480;2023-04-15T15:09:48;20.60;99.90
19007;DHT22;9636;47.382;8.480;2023-04-15T15:12:15;20.50;99.90
19007;DHT22;9636;47.382;8.480;2023-04-15T15:14:42;20.50;99.90
19007;DHT22;9636;47.382;8.480;2023-04-15T15:17:10;20.50;99.90
19007;DHT22;9636;47.382;8.480;2023-04-15T15:19:37;20.50;99.90
19007;DHT22;9636;47.382;8.480;2023-04-15T15:22:04;20.40;99.90
19007;DHT22;9636;47.382;8.480;2023-04-15T15:24:30;20.30;99.90
19007;DHT22;9636;47.382;8.480;2023-04-15T15:26:57;20.30;99.90
19007;DHT22;9636;47.382;8.480;2023-04-15T15:29:24;20.30;99.90
19007;DHT22;9636;47.382;8.480;2023-04-15T15:31:51;20.20;99.90
19007;DHT22;9636;47.382;8.480;2023-04-15T15:34:19;20.20;99.90
19007;DHT22;9636;47.382;8.480;2023-04-15T15:36:46;20.20;99.90
19007;DHT22;9636;47.382;8.480;2023-04-15T15:39:13;20.10;99.90
19007;DHT22;9636;47.382;8.480;2023-04-15T15:41:41;20.10;99.90
19007;DHT22;9636;47.382;8.480;2023-04-15T15:44:08;20.10;99.90
19007;DHT22;9636;47.382;8.480;2023-04-15T15:46:34;20.10;99.90
19007;DHT22;9636;47.382;8.480;2023-04-15T15:49:01;20.10;99.90